Airfield :
LOGIN :

Register | Disclaimer

   EN    FR    IT 

 










Legend :    VFR   Marginal VFR   IFR   Intensive IFR   Very Intensive IFR
Visi :
Ceiling :
>= 8 km
>= 3000ft
5 to 8 km
1000 to 3000 ft
1500m to 5 km
500 to 1000 ft
800 to 1500m
200 to 500 ft
< 800m
< 200 ft
Symbols :   Thunderstorms  Fog  Heavy snow  Heavy precipitations  Wind > 20 kt
SIGMETs :     Misc.  Thunderstorms  Icing  Turbulence  Mountain Waves  Volcanic Ashes






- Airport Elevation : 97 ft
- IATA code : EBJ


EKEB - Esbjerg

CURRENT METAR :
  • 280520Z AUTO 20012KT 2600 -RA BR OVC004/// 05/04 Q1016

EXPIRED METARs :
  • 280450Z AUTO 18012KT 3200 -RA BR OVC006/// 04/04 Q1016
  • 280420Z AUTO 18012KT 7000 OVC008/// 04/03 Q1016
  • 280350Z AUTO 18012KT 7000 -RA OVC009/// 04/03 Q1016
  • 280320Z AUTO 18012KT 7000 -RA OVC009/// 04/03 Q1016
  • 280250Z AUTO 17011KT 7000 DZ OVC010/// 04/03 Q1016
  • 280220Z AUTO 17012KT 9999 -DZ OVC010/// 03/02 Q1016
  • 280150Z AUTO 16011KT 9999 -RA OVC013/// 03/02 Q1016
  • 280120Z AUTO 17012KT 9999 DZ OVC015/// 03/02 Q1017
  • 280050Z AUTO 16010KT 9999 -DZ FEW024/// OVC051/// 03/01 Q1017

TAF TAF EKEB
Valid from the 28 at 06:00 until the 28 at 15:00 UTC


280513Z 2806/2815 18010KT 4000 RADZ BKN005
BECMG 2806/2808 9999 NSW BKN020
TEMPO 2808/2815 BKN012



MET'MAP, your aeronautical weather chart ! - Copyright ORBIFLY December 2007 - Disclaimer

ORBIFLY MET'MAP TEAM :

Programming & Development : Alexandra Zaïnal
Original concept : Baudouin d'Aumeries
Technical & hardware support : Manuel Goepfert
Assistance : Marc-Olivier Méhu




SOURCES & CREDITS :

   NOAA